createdAt,value
2023-01-30T10:51:48.299Z,5.60
2023-01-30T10:54:29.766Z,5.70
2023-01-30T10:57:32.985Z,5.52
2023-01-30T11:00:05.977Z,5.64
2023-01-30T11:03:51.351Z,6.04
2023-01-30T11:11:30.815Z,5.41
2023-01-30T11:14:20.682Z,6.15
2023-01-30T11:16:52.061Z,6.08
2023-01-30T11:19:23.540Z,6.13
2023-01-30T11:25:06.338Z,6.45
2023-01-30T11:28:06.681Z,6.56
2023-01-30T11:30:39.447Z,6.88
2023-01-30T11:33:14.836Z,6.78
2023-01-30T11:35:55.219Z,6.67
2023-01-30T11:38:28.025Z,6.62
2023-01-30T11:41:18.050Z,6.66
2023-01-30T11:43:49.217Z,6.46
2023-01-30T11:46:21.866Z,6.61
2023-01-30T11:49:03.340Z,6.53
2023-01-30T11:51:47.496Z,6.66
2023-01-30T11:54:20.490Z,6.80
2023-01-30T11:56:54.511Z,6.64
2023-01-30T11:59:29.343Z,6.66
2023-01-30T12:02:23.630Z,6.46
2023-01-30T12:04:57.001Z,6.59
2023-01-30T12:07:30.882Z,6.20
2023-01-30T12:10:03.419Z,6.24
2023-01-30T12:12:39.866Z,6.27
2023-01-30T12:15:27.140Z,6.19
2023-01-30T12:18:07.830Z,6.25
2023-01-30T12:20:51.452Z,6.10
2023-01-30T12:23:29.138Z,6.23
2023-01-30T12:26:05.526Z,6.14
2023-01-30T12:28:45.885Z,6.05
2023-01-30T12:31:54.532Z,6.26
2023-01-30T12:34:27.669Z,6.03
2023-01-30T12:37:07.099Z,6.06
2023-01-30T12:39:50.217Z,6.17
2023-01-30T12:42:37.235Z,6.37
2023-01-30T12:45:23.054Z,6.26
2023-01-30T12:48:20.056Z,6.31
2023-01-30T12:51:00.529Z,6.35
2023-01-30T12:53:40.372Z,6.43
2023-01-30T12:56:37.133Z,6.50
2023-01-30T12:59:18.464Z,6.65
2023-01-30T13:02:01.432Z,6.92
2023-01-30T13:04:56.165Z,6.93
2023-01-30T13:07:45.140Z,7.24
2023-01-30T13:10:24.143Z,7.15
2023-01-30T13:13:05.217Z,7.27
2023-01-30T13:15:40.207Z,7.19
2023-01-30T13:18:15.634Z,7.29
2023-01-30T13:21:08.978Z,7.12
2023-01-30T13:23:50.857Z,7.35
2023-01-30T13:26:23.069Z,7.17
2023-01-30T13:28:58.944Z,7.48
2023-01-30T13:31:32.097Z,7.61
2023-01-30T13:34:17.332Z,7.42
2023-01-30T13:36:50.980Z,7.47
2023-01-30T13:39:35.714Z,7.60
2023-01-30T13:42:09.653Z,7.46
2023-01-30T13:44:45.796Z,7.39
2023-01-30T13:47:31.430Z,7.44
2023-01-30T13:50:21.852Z,7.44
2023-01-30T13:53:00.781Z,7.66
2023-01-30T13:55:39.789Z,7.73
2023-01-30T13:58:18.761Z,7.84
2023-01-30T14:01:02.355Z,7.77
2023-01-30T14:03:33.934Z,7.48
2023-01-30T14:06:14.764Z,7.07
2023-01-30T14:08:55.697Z,7.63
2023-01-30T14:11:37.105Z,7.76
2023-01-30T14:14:22.833Z,8.10
2023-01-30T14:16:56.997Z,7.70
2023-01-30T14:19:42.527Z,8.02
2023-01-30T14:22:24.790Z,8.08
2023-01-30T14:25:29.162Z,8.08
2023-01-30T14:29:03.198Z,8.03
2023-01-30T14:32:03.332Z,7.81
2023-01-30T14:35:05.878Z,8.10
2023-01-30T14:38:12.738Z,7.95
2023-01-30T14:40:43.161Z,7.97
2023-01-30T14:43:50.265Z,7.94
2023-01-30T14:46:54.482Z,7.92
2023-01-30T14:49:33.309Z,7.83
2023-01-30T14:52:06.133Z,8.16
2023-01-30T14:54:42.117Z,7.66
2023-01-30T14:57:34.819Z,7.96
2023-01-30T15:00:17.195Z,8.16
2023-01-30T15:02:52.072Z,8.10
2023-01-30T15:05:30.779Z,7.79
2023-01-30T15:08:06.724Z,7.92
2023-01-30T15:10:51.274Z,8.00
2023-01-30T15:13:43.535Z,7.88
2023-01-30T15:16:29.073Z,7.93
2023-01-30T15:19:17.022Z,7.78
2023-01-30T15:22:05.767Z,7.91
2023-01-30T15:25:05.809Z,7.99
2023-01-30T15:27:53.554Z,8.02
2023-01-30T15:30:41.235Z,8.04
2023-01-30T15:33:29.216Z,7.68
2023-01-30T15:36:01.070Z,7.72
2023-01-30T15:38:33.934Z,7.66
2023-01-30T15:41:04.695Z,7.54
2023-01-30T15:43:54.857Z,7.48
2023-01-30T15:46:33.983Z,7.37
2023-01-30T15:49:27.260Z,7.32
2023-01-30T15:52:08.389Z,7.45
2023-01-30T15:54:40.079Z,7.43
2023-01-30T15:57:13.014Z,7.36
2023-01-30T15:59:44.205Z,7.38
2023-01-30T16:02:17.740Z,7.40
2023-01-30T16:04:50.832Z,7.31
2023-01-30T16:07:28.056Z,7.31
2023-01-30T16:10:07.380Z,7.38
2023-01-30T16:12:42.206Z,7.41
2023-01-30T16:15:29.516Z,7.07
2023-01-30T16:18:08.841Z,7.17
2023-01-30T16:20:59.212Z,7.26
2023-01-30T16:23:33.204Z,7.20
2023-01-30T16:26:08.030Z,7.16
2023-01-30T16:28:39.306Z,7.31
2023-01-30T16:31:10.161Z,7.16
2023-01-30T16:33:45.975Z,7.25
2023-01-30T16:36:35.516Z,7.24
2023-01-30T16:39:04.186Z,7.27
2023-01-30T16:41:41.431Z,7.31
2023-01-30T16:44:18.245Z,7.22
2023-01-30T16:46:53.920Z,7.36
2023-01-30T16:49:27.676Z,7.43
2023-01-30T16:52:05.278Z,7.31
2023-01-30T16:54:37.355Z,7.27
2023-01-30T16:57:08.946Z,7.30
2023-01-30T16:59:39.914Z,7.34
2023-01-30T17:02:24.844Z,7.39
2023-01-30T17:04:55.472Z,7.24
2023-01-30T17:07:49.838Z,7.23
2023-01-30T17:11:01.365Z,7.17
2023-01-30T17:13:43.488Z,7.28
2023-01-30T17:16:35.337Z,7.38
2023-01-30T17:19:07.218Z,7.37
2023-01-30T17:21:44.279Z,7.38
2023-01-30T17:24:18.035Z,7.64
2023-01-30T17:26:51.850Z,7.61
2023-01-30T17:29:41.284Z,7.55
2023-01-30T17:32:16.483Z,7.69
2023-01-30T17:34:45.461Z,7.72
2023-01-30T17:37:17.043Z,7.57
2023-01-30T17:39:47.651Z,7.60
2023-01-30T17:42:21.123Z,7.18
2023-01-30T17:44:54.075Z,7.38
2023-01-30T17:47:24.010Z,7.16
2023-01-30T17:49:53.271Z,7.27
2023-01-30T17:52:22.908Z,7.26
2023-01-30T17:54:54.367Z,7.23
2023-01-30T17:57:27.940Z,7.24
2023-01-30T17:59:59.803Z,7.21
2023-01-30T18:02:31.545Z,7.00
2023-01-30T18:05:01.152Z,7.21
2023-01-30T18:07:31.131Z,6.91
2023-01-30T18:10:01.280Z,7.06
2023-01-30T18:12:35.667Z,7.11
2023-01-30T18:15:07.425Z,7.09
2023-01-30T18:17:46.056Z,7.02
2023-01-30T18:20:22.924Z,6.96
2023-01-30T18:22:53.183Z,7.03
2023-01-30T18:25:22.312Z,6.99
2023-01-30T18:27:52.041Z,7.15
2023-01-30T18:30:25.433Z,7.16
2023-01-30T18:32:54.146Z,7.17
2023-01-30T18:35:24.436Z,7.18
2023-01-30T18:37:54.792Z,7.09
2023-01-30T18:40:26.822Z,7.02
2023-01-30T18:43:06.830Z,7.24
2023-01-30T18:45:38.992Z,7.23
2023-01-30T18:48:09.367Z,7.18
2023-01-30T18:50:39.263Z,7.39
2023-01-30T18:53:08.514Z,7.32
2023-01-30T18:55:50.494Z,7.40
2023-01-30T18:58:22.019Z,7.37
2023-01-30T19:00:54.826Z,7.40
2023-01-30T19:03:24.707Z,7.38
2023-01-30T19:05:53.471Z,7.52
2023-01-30T19:08:23.297Z,7.09
2023-01-30T19:10:53.297Z,7.16
2023-01-30T19:13:33.556Z,7.17
2023-01-30T19:16:09.099Z,7.15
2023-01-30T19:18:42.657Z,7.27
2023-01-30T19:21:13.335Z,7.23
2023-01-30T19:23:44.102Z,7.31
2023-01-30T19:26:16.181Z,7.09
2023-01-30T19:28:47.242Z,7.36
2023-01-30T19:31:20.218Z,7.17
2023-01-30T19:33:58.125Z,7.36
2023-01-30T19:36:30.221Z,7.31
2023-01-30T19:38:59.808Z,7.04
2023-01-30T19:41:30.907Z,7.02
2023-01-30T19:44:10.281Z,7.23
2023-01-30T19:46:43.515Z,7.14
2023-01-30T19:49:13.787Z,7.18
2023-01-30T19:51:43.653Z,6.96
2023-01-30T19:54:14.185Z,7.09
2023-01-30T19:56:45.528Z,7.16
2023-01-30T19:59:18.175Z,7.09
2023-01-30T20:01:50.168Z,6.80
2023-01-30T20:04:18.859Z,6.94
2023-01-30T20:06:49.785Z,6.94
2023-01-30T20:09:22.841Z,7.09
2023-01-30T20:11:53.529Z,6.94
2023-01-30T20:14:23.206Z,6.84
2023-01-30T20:16:54.047Z,6.85
2023-01-30T20:19:25.188Z,6.90
2023-01-30T20:21:57.698Z,6.58
2023-01-30T20:24:28.309Z,6.72
2023-01-30T20:26:57.646Z,6.55
2023-01-30T20:29:26.785Z,6.88
2023-01-30T20:32:01.697Z,6.96
2023-01-30T20:34:29.953Z,6.71
2023-01-30T20:37:00.880Z,6.98
2023-01-30T20:39:31.093Z,6.95
2023-01-30T20:42:02.146Z,6.99
2023-01-30T20:44:33.741Z,7.02
2023-01-30T20:47:05.086Z,6.53
2023-01-30T20:49:36.488Z,6.69
2023-01-30T20:52:07.343Z,6.93
2023-01-30T20:54:35.795Z,6.89
2023-01-30T20:57:08.853Z,6.76
2023-01-30T20:59:37.437Z,6.48
2023-01-30T21:02:07.984Z,6.75
2023-01-30T21:04:39.947Z,6.69
2023-01-30T21:07:12.337Z,6.60
2023-01-30T21:12:27.917Z,6.67
2023-01-30T21:14:58.753Z,6.77
2023-01-30T21:17:33.133Z,6.94
2023-01-30T21:20:01.990Z,6.91
2023-01-30T21:22:32.656Z,6.67
2023-01-30T21:25:01.725Z,6.82
2023-01-30T21:27:41.516Z,6.97
2023-01-30T21:30:25.203Z,6.61
2023-01-30T21:32:58.733Z,6.82
2023-01-30T21:35:44.870Z,6.68
2023-01-30T21:38:31.925Z,6.74
2023-01-30T21:41:26.155Z,6.63
2023-01-30T21:43:54.481Z,6.87
2023-01-30T21:46:22.871Z,6.77
2023-01-30T21:48:53.545Z,6.82
2023-01-30T21:51:22.885Z,6.99
2023-01-30T21:53:50.871Z,6.89
2023-01-30T21:56:21.217Z,6.90
2023-01-30T21:58:52.043Z,6.68
2023-01-30T22:01:20.531Z,6.58
2023-01-30T22:03:49.133Z,6.82
2023-01-30T22:06:18.869Z,6.79
2023-01-30T22:08:48.119Z,6.72
2023-01-30T22:11:19.399Z,6.43
2023-01-30T22:16:34.040Z,6.76
2023-01-30T22:19:04.402Z,6.75
2023-01-30T22:21:36.224Z,6.68
2023-01-30T22:24:08.547Z,6.77
2023-01-30T22:26:37.686Z,6.57
2023-01-30T22:29:07.841Z,6.68
2023-01-30T22:31:40.442Z,6.61
2023-01-30T22:34:11.632Z,6.69
2023-01-30T22:36:42.055Z,6.76
2023-01-30T22:39:12.088Z,6.47
2023-01-30T22:41:42.264Z,6.68
2023-01-30T22:44:11.292Z,6.71
2023-01-30T22:46:42.138Z,6.58
2023-01-30T22:49:12.434Z,6.41
2023-01-30T22:51:43.922Z,6.46
2023-01-30T22:54:16.213Z,6.38
2023-01-30T22:56:46.662Z,6.39
2023-01-30T22:59:15.967Z,6.31
2023-01-30T23:02:19.362Z,6.31
2023-01-30T23:04:50.782Z,6.45
2023-01-30T23:07:23.536Z,6.01
2023-01-30T23:09:52.074Z,6.15
2023-01-30T23:12:43.762Z,5.87
2023-01-30T23:15:12.834Z,6.18
2023-01-30T23:17:59.851Z,6.08
2023-01-30T23:20:28.439Z,6.20
2023-01-30T23:22:58.116Z,6.12
2023-01-30T23:25:29.609Z,6.21
2023-01-30T23:28:01.117Z,6.18
2023-01-30T23:30:32.123Z,6.36
2023-01-30T23:33:01.295Z,6.40
2023-01-30T23:35:29.953Z,6.27
2023-01-30T23:38:13.603Z,6.37
2023-01-30T23:40:43.283Z,6.21
2023-01-30T23:43:14.078Z,6.26
2023-01-30T23:45:43.399Z,6.03
2023-01-30T23:48:12.236Z,5.91
2023-01-30T23:50:42.235Z,5.95
2023-01-30T23:53:12.135Z,6.11
2023-01-30T23:55:40.474Z,5.92
2023-01-30T23:58:09.344Z,6.03
